createdAt,value
2018-07-14T00:00:44.595Z,4.12
2018-07-14T00:03:12.773Z,3.92
2018-07-14T00:05:40.912Z,3.80
2018-07-14T00:08:08.976Z,4.00
2018-07-14T00:10:37.052Z,3.95
2018-07-14T00:13:05.656Z,4.05
2018-07-14T00:15:33.765Z,3.90
2018-07-14T00:18:01.870Z,4.00
2018-07-14T00:20:30.094Z,3.80
2018-07-14T00:22:58.266Z,4.15
2018-07-14T00:25:31.962Z,3.75
2018-07-14T00:28:00.094Z,4.17
2018-07-14T00:30:28.184Z,3.92
2018-07-14T00:32:56.349Z,4.05
2018-07-14T00:35:24.498Z,3.92
2018-07-14T00:37:52.585Z,4.30
2018-07-14T00:40:21.715Z,3.83
2018-07-14T00:42:49.842Z,3.95
2018-07-14T00:45:18.194Z,4.12
2018-07-14T00:47:46.422Z,4.67
2018-07-14T00:50:15.522Z,4.45
2018-07-14T00:52:43.643Z,4.33
2018-07-14T00:55:11.825Z,3.90
2018-07-14T00:57:39.950Z,4.62
2018-07-14T01:00:09.041Z,4.25
2018-07-14T01:02:37.172Z,4.83
2018-07-14T01:05:05.352Z,4.03
2018-07-14T01:07:33.442Z,4.03
2018-07-14T01:10:01.354Z,4.20
2018-07-14T01:12:29.550Z,4.20
2018-07-14T01:14:57.729Z,3.70
2018-07-14T01:17:25.962Z,3.87
2018-07-14T01:19:55.022Z,4.05
2018-07-14T01:22:23.165Z,4.15
2018-07-14T01:24:51.373Z,3.75
2018-07-14T01:27:19.554Z,3.83
2018-07-14T01:29:47.642Z,3.70
2018-07-14T01:32:15.792Z,3.98
2018-07-14T01:34:43.963Z,3.92
2018-07-14T01:37:12.298Z,4.20
2018-07-14T01:39:40.444Z,4.35
2018-07-14T01:42:08.522Z,4.12
2018-07-14T01:44:36.649Z,3.72
2018-07-14T01:47:04.742Z,4.45
2018-07-14T01:49:32.826Z,4.53
2018-07-14T01:52:00.934Z,4.65
2018-07-14T01:54:29.066Z,4.12
2018-07-14T01:56:57.261Z,4.62
2018-07-14T01:59:25.434Z,4.47
2018-07-14T02:01:53.533Z,4.72
2018-07-14T02:04:21.613Z,4.42
2018-07-14T02:06:49.730Z,4.83
2018-07-14T02:09:18.111Z,4.80
2018-07-14T02:11:46.057Z,4.80
2018-07-14T02:14:15.146Z,4.33
2018-07-14T02:16:43.246Z,4.60
2018-07-14T02:19:11.310Z,4.35
2018-07-14T02:21:39.383Z,5.05
2018-07-14T02:24:07.529Z,4.58
2018-07-14T02:26:35.625Z,4.72
2018-07-14T02:29:03.545Z,4.85
2018-07-14T02:31:31.713Z,4.92
2018-07-14T02:33:59.819Z,4.47
2018-07-14T02:36:27.895Z,5.10
2018-07-14T02:38:56.021Z,5.47
2018-07-14T02:41:24.207Z,5.00
2018-07-14T02:43:52.302Z,4.60
2018-07-14T02:46:20.480Z,5.10
2018-07-14T02:48:48.558Z,5.08
2018-07-14T02:51:16.654Z,4.90
2018-07-14T02:53:44.884Z,4.60
2018-07-14T02:56:13.014Z,5.35
2018-07-14T02:58:41.118Z,4.90
2018-07-14T03:01:09.294Z,5.37
2018-07-14T03:03:37.522Z,4.40
2018-07-14T03:06:05.679Z,5.12
2018-07-14T03:08:33.854Z,4.92
2018-07-14T03:11:02.034Z,5.10
2018-07-14T03:13:30.106Z,5.00
2018-07-14T03:15:58.203Z,5.10
2018-07-14T03:18:26.300Z,4.95
2018-07-14T03:20:54.483Z,5.28
2018-07-14T03:23:22.577Z,5.72
2018-07-14T03:25:50.638Z,4.83
2018-07-14T03:28:18.745Z,5.40
2018-07-14T03:30:46.914Z,5.12
2018-07-14T03:33:14.871Z,4.90
2018-07-14T03:35:42.986Z,5.40
2018-07-14T03:38:11.070Z,5.00
2018-07-14T03:40:39.157Z,5.28
2018-07-14T03:43:07.237Z,5.08
2018-07-14T03:45:35.313Z,5.20
2018-07-14T03:48:03.415Z,4.87
2018-07-14T03:50:31.598Z,5.35
2018-07-14T03:52:59.789Z,5.67
2018-07-14T03:55:27.966Z,5.92
2018-07-14T03:57:56.075Z,4.95
2018-07-14T04:00:24.239Z,4.97
2018-07-14T04:02:52.322Z,5.87
2018-07-14T04:05:20.402Z,5.10
2018-07-14T04:07:48.502Z,5.72
2018-07-14T04:10:16.673Z,5.87
2018-07-14T04:12:44.783Z,5.10
2018-07-14T04:15:13.031Z,5.50
2018-07-14T04:17:41.158Z,6.35
2018-07-14T04:20:10.245Z,5.78
2018-07-14T04:22:38.360Z,6.00
2018-07-14T04:25:06.319Z,6.10
2018-07-14T04:27:34.511Z,6.00
2018-07-14T04:30:02.584Z,5.85
2018-07-14T04:32:30.667Z,5.78
2018-07-14T04:34:58.754Z,6.05
2018-07-14T04:37:26.943Z,6.28
2018-07-14T04:39:55.034Z,5.60
2018-07-14T04:42:23.207Z,5.97
2018-07-14T04:44:51.133Z,5.65
2018-07-14T04:47:19.286Z,5.53
2018-07-14T04:49:47.477Z,5.33
2018-07-14T04:52:15.662Z,5.50
2018-07-14T04:54:44.167Z,5.50
2018-07-14T04:57:12.330Z,5.62
2018-07-14T04:59:40.439Z,5.65
2018-07-14T05:02:08.630Z,5.30
2018-07-14T05:04:36.808Z,5.67
2018-07-14T05:07:05.166Z,5.78
2018-07-14T05:09:33.291Z,6.37
2018-07-14T05:12:01.446Z,6.28
2018-07-14T05:14:29.648Z,6.20
2018-07-14T05:16:57.821Z,6.12
2018-07-14T05:19:25.918Z,6.20
2018-07-14T05:21:54.090Z,6.00
2018-07-14T05:24:22.191Z,6.05
2018-07-14T05:26:50.481Z,6.20
2018-07-14T05:29:18.693Z,6.10
2018-07-14T05:31:46.857Z,6.65
2018-07-14T05:34:15.042Z,6.15
2018-07-14T05:36:43.214Z,5.87
2018-07-14T05:39:11.305Z,6.83
2018-07-14T05:41:39.499Z,5.92
2018-07-14T05:44:07.764Z,6.47
2018-07-14T05:46:35.854Z,6.60
2018-07-14T05:49:03.972Z,5.65
2018-07-14T05:51:32.163Z,6.53
2018-07-14T05:54:00.318Z,5.97
2018-07-14T05:56:28.402Z,6.37
2018-07-14T05:58:56.501Z,6.42
2018-07-14T06:01:24.673Z,5.25
2018-07-14T06:03:52.766Z,5.08
2018-07-14T06:06:21.078Z,5.03
2018-07-14T06:08:49.313Z,5.00
2018-07-14T06:11:17.417Z,5.17
2018-07-14T06:13:45.654Z,4.67
2018-07-14T06:16:13.940Z,4.70
2018-07-14T06:18:42.096Z,4.50
2018-07-14T06:21:10.270Z,4.08
2018-07-14T06:23:39.401Z,4.58
2018-07-14T06:26:07.558Z,4.33
2018-07-14T06:28:35.682Z,4.28
2018-07-14T06:31:03.843Z,4.30
2018-07-14T06:33:31.957Z,4.22
2018-07-14T06:36:00.111Z,4.30
2018-07-14T06:38:28.235Z,3.90
2018-07-14T06:40:56.422Z,4.37
2018-07-14T06:43:24.569Z,4.03
2018-07-14T06:45:52.659Z,4.22
2018-07-14T06:48:20.837Z,3.58
2018-07-14T06:50:48.922Z,4.10
2018-07-14T06:53:16.880Z,3.30
2018-07-14T06:55:45.007Z,4.15
2018-07-14T06:58:13.177Z,3.90
2018-07-14T07:00:41.267Z,3.80
2018-07-14T07:03:09.444Z,3.90
2018-07-14T07:05:37.545Z,4.15
2018-07-14T07:08:05.730Z,4.12
2018-07-14T07:10:33.814Z,4.15
2018-07-14T07:13:02.011Z,3.90
2018-07-14T07:15:30.190Z,3.55
2018-07-14T07:17:58.374Z,3.77
2018-07-14T07:20:26.573Z,3.40
2018-07-14T07:22:54.974Z,3.40
2018-07-14T07:25:23.144Z,3.55
2018-07-14T07:27:51.329Z,3.20
2018-07-14T07:30:19.506Z,2.87
2018-07-14T07:32:47.583Z,3.67
2018-07-14T07:35:15.682Z,3.02
2018-07-14T07:37:43.855Z,3.02
2018-07-14T07:40:12.979Z,2.90
2018-07-14T07:42:41.153Z,3.40
2018-07-14T07:45:09.236Z,4.00
2018-07-14T07:47:37.322Z,3.35
2018-07-14T07:50:05.762Z,3.67
2018-07-14T07:52:34.158Z,3.92
2018-07-14T07:55:02.298Z,3.67
2018-07-14T07:57:30.470Z,3.72
2018-07-14T07:59:58.586Z,3.95
2018-07-14T08:02:26.745Z,3.47
2018-07-14T08:04:54.854Z,3.80
2018-07-14T08:07:23.018Z,3.62
2018-07-14T08:09:51.046Z,3.65
2018-07-14T08:12:19.201Z,3.77
2018-07-14T08:14:47.387Z,3.83
2018-07-14T08:17:15.822Z,3.87
2018-07-14T08:19:44.183Z,3.52
2018-07-14T08:22:12.367Z,3.62
2018-07-14T08:24:40.546Z,4.12
2018-07-14T08:27:08.744Z,3.22
2018-07-14T08:29:36.925Z,3.98
2018-07-14T08:32:05.090Z,3.90
2018-07-14T08:34:33.188Z,4.05
2018-07-14T08:37:01.294Z,3.35
2018-07-14T08:39:29.466Z,3.02
2018-07-14T08:41:57.651Z,3.40
2018-07-14T08:44:25.718Z,3.77
2018-07-14T08:46:53.822Z,3.52
2018-07-14T08:49:21.899Z,3.20
2018-07-14T08:51:50.036Z,2.98
2018-07-14T08:54:18.280Z,3.47
2018-07-14T08:56:46.464Z,3.22
2018-07-14T08:59:14.653Z,3.52
2018-07-14T09:01:42.822Z,3.20
2018-07-14T09:04:10.919Z,3.25
2018-07-14T09:06:39.102Z,3.17
2018-07-14T09:09:07.422Z,3.15
2018-07-14T09:11:35.590Z,3.08
2018-07-14T09:14:03.754Z,3.22
2018-07-14T09:16:31.908Z,2.85
2018-07-14T09:19:00.034Z,2.75
2018-07-14T09:21:28.133Z,2.45
2018-07-14T09:23:56.301Z,2.90
2018-07-14T09:26:24.410Z,2.45
2018-07-14T09:28:52.582Z,2.30
2018-07-14T09:31:20.767Z,2.25
2018-07-14T09:33:48.837Z,2.83
2018-07-14T09:36:16.935Z,2.50
2018-07-14T09:38:45.019Z,2.77
2018-07-14T09:41:13.210Z,2.67
2018-07-14T09:43:41.433Z,2.58
2018-07-14T09:46:09.481Z,2.77
2018-07-14T09:48:37.669Z,2.90
2018-07-14T09:51:05.738Z,2.70
2018-07-14T09:53:33.826Z,2.60
2018-07-14T09:56:01.913Z,3.00
2018-07-14T09:58:29.998Z,2.87
2018-07-14T10:01:03.380Z,2.58
2018-07-14T10:03:31.552Z,2.87
2018-07-14T10:05:59.594Z,2.70
2018-07-14T10:08:27.662Z,2.85
2018-07-14T10:10:55.745Z,2.92
2018-07-14T10:13:23.826Z,2.77
2018-07-14T10:15:52.027Z,2.60
2018-07-14T10:18:20.201Z,2.55
2018-07-14T10:20:48.278Z,2.42
2018-07-14T10:23:16.370Z,2.40
2018-07-14T10:25:44.502Z,2.50
2018-07-14T10:28:12.428Z,2.40
2018-07-14T10:30:40.763Z,2.45
2018-07-14T10:33:09.046Z,2.42
2018-07-14T10:35:37.214Z,2.65
2018-07-14T10:38:05.592Z,2.77
2018-07-14T10:40:33.683Z,2.52
2018-07-14T10:43:01.763Z,2.45
2018-07-14T10:45:29.858Z,2.72
2018-07-14T10:47:58.026Z,2.15
2018-07-14T10:50:27.151Z,2.47
2018-07-14T10:52:55.347Z,2.22
2018-07-14T10:55:23.522Z,2.27
2018-07-14T10:57:51.706Z,2.58
2018-07-14T11:00:19.786Z,2.45
2018-07-14T11:02:47.874Z,2.60
2018-07-14T11:05:15.967Z,2.55
2018-07-14T11:07:44.256Z,2.25
2018-07-14T11:10:12.447Z,2.42
2018-07-14T11:12:40.528Z,2.65
2018-07-14T11:15:08.702Z,1.95
2018-07-14T11:17:36.794Z,2.15
2018-07-14T11:20:04.970Z,2.05
2018-07-14T11:22:33.102Z,2.20
2018-07-14T11:25:01.241Z,2.50
2018-07-14T11:27:29.173Z,2.20
2018-07-14T11:29:57.346Z,2.50
2018-07-14T11:32:25.561Z,2.15
2018-07-14T11:34:53.682Z,2.20
2018-07-14T11:37:21.779Z,2.17
2018-07-14T11:39:49.961Z,2.37
2018-07-14T11:42:18.260Z,2.02
2018-07-14T11:44:46.335Z,2.50
2018-07-14T11:47:14.427Z,2.15
2018-07-14T11:49:42.661Z,2.58
2018-07-14T11:52:10.813Z,2.40
2018-07-14T11:54:38.979Z,2.20
2018-07-14T11:57:07.131Z,2.10
2018-07-14T11:59:35.259Z,1.98
2018-07-14T12:02:03.460Z,2.27
2018-07-14T12:04:31.642Z,2.20
2018-07-14T12:06:59.814Z,2.25
2018-07-14T12:09:28.019Z,2.10
2018-07-14T12:11:56.210Z,2.37
2018-07-14T12:14:24.382Z,2.75
2018-07-14T12:16:52.577Z,2.20
2018-07-14T12:19:20.762Z,2.67
2018-07-14T12:21:48.966Z,2.77
2018-07-14T12:24:17.126Z,2.75
2018-07-14T12:26:45.342Z,1.87
2018-07-14T12:29:13.497Z,2.40
2018-07-14T12:31:41.700Z,1.90
2018-07-14T12:34:09.940Z,2.42
2018-07-14T12:36:38.022Z,2.27
2018-07-14T12:39:06.626Z,2.10
2018-07-14T12:41:34.739Z,2.40
2018-07-14T12:44:02.927Z,1.98
2018-07-14T12:46:31.110Z,2.20
2018-07-14T12:48:59.294Z,2.42
2018-07-14T12:51:27.372Z,2.05
2018-07-14T12:53:55.560Z,2.05
2018-07-14T12:56:23.659Z,2.20
2018-07-14T12:58:51.829Z,2.20
2018-07-14T13:01:20.150Z,2.20
2018-07-14T13:03:48.404Z,2.25
2018-07-14T13:06:16.497Z,2.05
2018-07-14T13:08:44.574Z,2.22
2018-07-14T13:11:12.672Z,2.65
2018-07-14T13:13:40.849Z,2.80
2018-07-14T13:16:09.037Z,2.42
2018-07-14T13:18:37.138Z,2.12
2018-07-14T13:21:05.323Z,2.40
2018-07-14T13:23:33.410Z,2.67
2018-07-14T13:26:01.581Z,2.50
2018-07-14T13:28:29.674Z,2.80
2018-07-14T13:30:57.869Z,2.70
2018-07-14T13:33:26.050Z,2.87
2018-07-14T13:35:54.240Z,2.95
2018-07-14T13:38:22.416Z,2.60
2018-07-14T13:40:50.526Z,2.80
2018-07-14T13:43:18.714Z,2.62
2018-07-14T13:45:46.883Z,2.72
2018-07-14T13:48:15.082Z,3.00
2018-07-14T13:50:43.242Z,2.87
2018-07-14T13:53:11.446Z,2.67
2018-07-14T13:55:39.530Z,2.60
2018-07-14T13:58:07.630Z,2.60
2018-07-14T14:00:35.802Z,2.60
2018-07-14T14:03:04.002Z,2.60
2018-07-14T14:05:32.158Z,2.45
2018-07-14T14:08:00.250Z,2.40
2018-07-14T14:10:28.326Z,2.50
2018-07-14T14:12:56.234Z,2.50
2018-07-14T14:15:24.409Z,2.62
2018-07-14T14:17:52.586Z,2.42
2018-07-14T14:20:20.701Z,2.75
2018-07-14T14:22:48.868Z,2.70
2018-07-14T14:25:17.054Z,2.58
2018-07-14T14:27:45.133Z,2.30
2018-07-14T14:30:13.329Z,2.50
2018-07-14T14:32:41.506Z,2.50
2018-07-14T14:35:09.696Z,2.22
2018-07-14T14:37:37.780Z,2.55
2018-07-14T14:40:06.033Z,2.52
2018-07-14T14:42:34.157Z,2.60
2018-07-14T14:45:02.235Z,2.85
2018-07-14T14:47:30.737Z,2.42
2018-07-14T14:49:58.902Z,3.20
2018-07-14T14:52:27.004Z,2.87
2018-07-14T14:54:55.191Z,2.60
2018-07-14T14:57:24.366Z,3.00
2018-07-14T14:59:52.471Z,2.58
2018-07-14T15:02:20.577Z,2.58
2018-07-14T15:04:48.775Z,2.90
2018-07-14T15:07:16.841Z,2.75
2018-07-14T15:09:45.018Z,2.90
2018-07-14T15:12:12.917Z,2.80
2018-07-14T15:14:41.098Z,2.37
2018-07-14T15:17:09.266Z,2.90
2018-07-14T15:19:37.378Z,2.60
2018-07-14T15:22:05.538Z,2.37
2018-07-14T15:24:33.638Z,2.87
2018-07-14T15:27:01.811Z,2.55
2018-07-14T15:29:29.897Z,2.50
2018-07-14T15:31:57.997Z,2.85
2018-07-14T15:34:26.310Z,2.87
2018-07-14T15:36:54.381Z,3.15
2018-07-14T15:39:22.562Z,3.10
2018-07-14T15:41:50.848Z,3.05
2018-07-14T15:44:19.022Z,3.00
2018-07-14T15:46:47.104Z,2.62
2018-07-14T15:49:15.018Z,3.08
2018-07-14T15:51:43.098Z,2.80
2018-07-14T15:54:11.174Z,3.00
2018-07-14T15:56:39.338Z,2.83
2018-07-14T15:59:07.543Z,2.70
2018-07-14T16:01:35.625Z,2.62
2018-07-14T16:04:03.797Z,2.95
2018-07-14T16:06:31.877Z,2.92
2018-07-14T16:08:59.971Z,2.83
2018-07-14T16:11:28.051Z,2.67
2018-07-14T16:13:56.149Z,3.33
2018-07-14T16:16:24.331Z,2.50
2018-07-14T16:18:52.448Z,2.83
2018-07-14T16:21:20.634Z,2.83
2018-07-14T16:23:48.792Z,2.72
2018-07-14T16:26:16.988Z,2.77
2018-07-14T16:28:45.169Z,2.15
2018-07-14T16:31:13.425Z,2.42
2018-07-14T16:33:41.585Z,2.60
2018-07-14T16:36:09.710Z,2.60
2018-07-14T16:38:37.802Z,2.60
2018-07-14T16:41:06.020Z,2.33
2018-07-14T16:43:34.236Z,2.87
2018-07-14T16:46:02.356Z,3.30
2018-07-14T16:48:30.446Z,3.55
2018-07-14T16:50:58.530Z,2.75
2018-07-14T16:53:26.638Z,2.72
2018-07-14T16:55:54.707Z,2.62
2018-07-14T16:58:22.934Z,2.60
2018-07-14T17:00:51.074Z,2.70
2018-07-14T17:03:19.167Z,2.80
2018-07-14T17:05:47.346Z,3.30
2018-07-14T17:08:15.458Z,2.70
2018-07-14T17:10:43.618Z,3.20
2018-07-14T17:13:11.802Z,2.65
2018-07-14T17:15:39.993Z,3.47
2018-07-14T17:18:08.523Z,3.02
2018-07-14T17:20:36.663Z,2.98
2018-07-14T17:23:04.754Z,2.80
2018-07-14T17:25:32.838Z,2.90
2018-07-14T17:28:00.914Z,2.85
2018-07-14T17:30:29.055Z,2.40
2018-07-14T17:32:57.446Z,2.95
2018-07-14T17:35:25.602Z,2.55
2018-07-14T17:37:53.774Z,2.50
2018-07-14T17:40:21.898Z,2.75
2018-07-14T17:42:50.174Z,2.65
2018-07-14T17:45:18.342Z,2.70
2018-07-14T17:47:46.413Z,2.83
2018-07-14T17:50:14.444Z,2.77
2018-07-14T17:52:42.609Z,2.60
2018-07-14T17:55:10.689Z,2.47
2018-07-14T17:57:38.849Z,2.67
2018-07-14T18:00:06.981Z,2.80
2018-07-14T18:02:35.155Z,2.22
2018-07-14T18:05:03.350Z,2.42
2018-07-14T18:07:31.494Z,2.92
2018-07-14T18:09:59.594Z,2.47
2018-07-14T18:12:27.829Z,2.90
2018-07-14T18:14:55.982Z,3.27
2018-07-14T18:17:24.155Z,3.17
2018-07-14T18:19:52.243Z,2.90
2018-07-14T18:22:20.452Z,3.05
2018-07-14T18:24:48.534Z,2.98
2018-07-14T18:27:16.699Z,3.27
2018-07-14T18:29:44.902Z,3.50
2018-07-14T18:32:13.341Z,2.95
2018-07-14T18:34:41.479Z,3.37
2018-07-14T18:37:09.691Z,3.60
2018-07-14T18:39:37.857Z,3.10
2018-07-14T18:42:06.966Z,3.80
2018-07-14T18:44:35.121Z,4.10
2018-07-14T18:47:03.213Z,3.17
2018-07-14T18:49:31.309Z,3.27
2018-07-14T18:51:59.496Z,3.30
2018-07-14T18:54:27.737Z,3.52
2018-07-14T18:56:55.850Z,3.10
2018-07-14T18:59:23.756Z,3.27
2018-07-14T19:01:51.962Z,3.05
2018-07-14T19:04:20.041Z,3.40
2018-07-14T19:06:48.199Z,3.10
2018-07-14T19:09:16.521Z,2.90
2018-07-14T19:11:44.807Z,3.02
2018-07-14T19:14:13.106Z,3.50
2018-07-14T19:16:41.245Z,3.37
2018-07-14T19:19:09.357Z,2.87
2018-07-14T19:21:37.512Z,3.45
2018-07-14T19:24:05.642Z,2.90
2018-07-14T19:26:33.840Z,2.98
2018-07-14T19:29:01.885Z,3.02
2018-07-14T19:31:30.062Z,3.02
2018-07-14T19:33:58.243Z,3.08
2018-07-14T19:36:26.403Z,3.00
2018-07-14T19:38:54.514Z,2.75
2018-07-14T19:41:22.606Z,3.30
2018-07-14T19:43:50.810Z,3.58
2018-07-14T19:46:19.019Z,3.30
2018-07-14T19:48:47.169Z,3.12
2018-07-14T19:51:15.250Z,3.58
2018-07-14T19:53:43.334Z,3.20
2018-07-14T19:56:11.487Z,2.95
2018-07-14T19:58:39.599Z,3.42
2018-07-14T20:01:07.696Z,3.42
2018-07-14T20:03:35.863Z,3.20
2018-07-14T20:06:04.063Z,3.40
2018-07-14T20:08:32.137Z,3.45
2018-07-14T20:11:00.238Z,3.98
2018-07-14T20:13:28.654Z,3.17
2018-07-14T20:15:56.825Z,3.35
2018-07-14T20:18:25.030Z,3.40
2018-07-14T20:20:53.205Z,3.72
2018-07-14T20:23:21.370Z,3.30
2018-07-14T20:25:49.455Z,3.67
2018-07-14T20:28:17.530Z,3.47
2018-07-14T20:30:45.622Z,4.20
2018-07-14T20:33:13.950Z,4.22
2018-07-14T20:35:42.098Z,3.98
2018-07-14T20:38:10.178Z,3.77
2018-07-14T20:40:38.301Z,4.12
2018-07-14T20:43:06.442Z,4.08
2018-07-14T20:45:34.534Z,4.08
2018-07-14T20:48:02.622Z,4.17
2018-07-14T20:50:30.714Z,3.85
2018-07-14T20:52:58.898Z,4.05
2018-07-14T20:55:27.086Z,3.77
2018-07-14T20:57:55.503Z,4.28
2018-07-14T21:00:23.671Z,3.90
2018-07-14T21:02:51.837Z,4.00
2018-07-14T21:05:19.932Z,3.83
2018-07-14T21:07:48.026Z,4.03
2018-07-14T21:10:16.141Z,3.60
2018-07-14T21:12:44.361Z,4.35
2018-07-14T21:15:12.370Z,4.12
2018-07-14T21:17:40.450Z,3.90
2018-07-14T21:20:08.698Z,4.20
2018-07-14T21:22:36.822Z,4.53
2018-07-14T21:25:04.749Z,4.10
2018-07-14T21:27:32.897Z,4.45
2018-07-14T21:30:01.110Z,4.78
2018-07-14T21:32:29.267Z,4.50
2018-07-14T21:34:57.502Z,4.28
2018-07-14T21:37:25.636Z,4.75
2018-07-14T21:39:53.727Z,4.40
2018-07-14T21:42:21.837Z,5.05
2018-07-14T21:44:49.997Z,4.50
2018-07-14T21:47:18.098Z,4.85
2018-07-14T21:49:46.257Z,4.87
2018-07-14T21:52:14.377Z,4.67
2018-07-14T21:54:42.538Z,4.55
2018-07-14T21:57:10.634Z,4.80
2018-07-14T21:59:38.813Z,4.70
2018-07-14T22:02:07.047Z,4.95
2018-07-14T22:04:35.930Z,5.00
2018-07-14T22:07:04.114Z,4.47
2018-07-14T22:09:32.302Z,4.35
2018-07-14T22:12:00.487Z,4.28
2018-07-14T22:14:28.642Z,4.60
2018-07-14T22:16:56.750Z,4.60
2018-07-14T22:19:24.909Z,5.15
2018-07-14T22:21:53.002Z,4.87
2018-07-14T22:24:21.082Z,4.40
2018-07-14T22:26:49.192Z,4.53
2018-07-14T22:29:17.417Z,4.30
2018-07-14T22:31:45.458Z,4.55
2018-07-14T22:34:13.640Z,4.80
2018-07-14T22:36:41.834Z,4.95
2018-07-14T22:39:10.007Z,4.50
2018-07-14T22:41:38.094Z,4.95
2018-07-14T22:44:06.266Z,4.97
2018-07-14T22:46:34.358Z,5.05
2018-07-14T22:49:02.435Z,4.40
2018-07-14T22:51:30.529Z,4.72
2018-07-14T22:53:58.618Z,4.53
2018-07-14T22:56:26.802Z,4.92
2018-07-14T22:58:54.878Z,4.10
2018-07-14T23:01:22.973Z,5.33
2018-07-14T23:03:51.158Z,5.10
2018-07-14T23:06:19.247Z,4.70
2018-07-14T23:08:47.446Z,4.47
2018-07-14T23:11:15.624Z,5.20
2018-07-14T23:13:43.799Z,4.67
2018-07-14T23:16:11.990Z,5.15
2018-07-14T23:18:40.070Z,4.72
2018-07-14T23:21:08.170Z,4.90
2018-07-14T23:23:36.341Z,4.72
2018-07-14T23:26:04.439Z,5.17
2018-07-14T23:28:32.610Z,4.50
2018-07-14T23:31:00.764Z,4.95
2018-07-14T23:33:28.797Z,4.87
2018-07-14T23:35:56.877Z,5.03
2018-07-14T23:38:25.290Z,4.58
2018-07-14T23:40:53.442Z,4.47
2018-07-14T23:43:21.554Z,5.35
2018-07-14T23:45:49.721Z,4.95
2018-07-14T23:48:17.910Z,4.87
2018-07-14T23:50:46.090Z,4.53
2018-07-14T23:53:14.174Z,4.85
2018-07-14T23:55:42.253Z,5.08
2018-07-14T23:58:10.342Z,4.67
